Terminal Aerodrome Forecast
Issued by NWS

Home | Current Version | Previous Version | Text Only | Print | Product List | Glossary On
Versions: 1 2 3 4 5 6 7 8 9 10 11 12 13 14 15 16 17 18
000
FTUS43 KEAX 241700
TAFSTJ
TAF
KSTJ 241729Z 2418/2518 31012G20KT P6SM OVC018
     FM242000 30011KT P6SM OVC020
     FM250400 19007KT P6SM SCT250
     FM251500 18020G30KT P6SM SCT250=

USA.gov is the U.S. government's official web portal to all federal, state and local government web resources and services.